Skip to main content

NOAA/GLERL Met Station at Chicago, IL

Previous 5 days (top of hour only)
See also Previous 3 Hours (2 minute increments)
Jump down to Data
Switch to [English][Metric]
Zoom: Click and drag, Pan: shift-click and drag, Unzoom: double-click, Unzoom All




Note: Speed = mean wind during 2-minute period at top of hour,
Gust = max wind during 2-minute period at top of hour,
Peak = max wind during entire hour.
• See also 5-day windrose plot


NOAA/GLERL Met Station at Chicago, IL

Previous 5 days (top of hour only)
See also Previous 3 Hours (2 minute increments)
Jump up to Graphs
Switch to [English][Metric]
                  Wind  Wind  Wind   Air   Dew   Rel
                   Spd   Gst   Dir  Temp    Pt   Hum
YYYY-MM-DD   CDT   kts   kts   deg     F     F     %
2020-08-07 00:00 -99.0 -99.0   -99   0.0   0.0   0.0
2020-08-06 14:00   5.8   6.6   122  73.9  61.2  64.0
2020-08-06 13:00   6.8   7.4   121  72.9  60.2  64.0
2020-08-06 12:00   6.4   7.0   114  72.3  62.2  70.0
2020-08-06 11:00   5.1   6.0    86  70.7  61.5  72.2
2020-08-06 10:00   3.3   4.1   141  73.0  62.3  68.6
2020-08-06 09:00   1.7   3.5   151  72.5  60.6  65.7
2020-08-06 08:00   3.7   4.9   298  68.9  59.7  72.2
2020-08-06 07:00   9.1  10.3   277  68.0  59.7  74.5
2020-08-06 06:00  10.3  11.9   273  68.2  59.8  74.3
2020-08-06 05:00  10.9  12.8   266  68.5  60.0  73.8
2020-08-06 04:00  11.5  12.2   252  69.1  58.4  68.3
2020-08-06 03:00  13.8  14.6   252  69.8  57.7  64.9
2020-08-06 02:00   8.9   9.9   243  70.9  59.8  67.5
2020-08-06 01:00  11.1  12.2   211  71.2  58.4  63.5
2020-08-06 00:00   8.4   8.9   217  72.0  58.6  62.3
2020-08-05 23:00   9.9  11.9   204  72.1  59.3  63.6
2020-08-05 22:00  13.0  13.8   188  72.1  58.6  62.0
2020-08-05 21:00  12.1  12.8   175  72.5  59.6  63.5
2020-08-05 20:00  11.9  14.0   153  72.1  60.0  65.1
2020-08-05 19:00  13.0  14.6   146  72.3  58.8  61.9
2020-08-05 18:00  13.0  15.4   143  72.1  58.3  61.3
2020-08-05 17:00  11.7  13.2   141  72.1  58.5  61.7
2020-08-05 16:00  14.0  14.6   133  71.8  56.2  57.4
2020-08-05 15:00  13.8  14.8   130  71.2  54.8  55.5
2020-08-05 14:00  10.5  11.9   137  71.6  55.0  55.3
2020-08-05 13:00  13.0  14.2   137  70.9  52.2  51.2
2020-08-05 12:00   5.1   8.4   156  72.3  51.2  46.9
2020-08-05 11:00   5.6   7.0   222  70.5  49.4  46.6
2020-08-05 10:00   5.6   6.4   207  68.7  51.7  54.2
2020-08-05 09:00   6.8   7.8   240  66.7  51.3  57.1
2020-08-05 08:00  11.3  12.2   253  64.6  53.6  67.1
2020-08-05 07:00  13.6  14.2   260  63.7  54.3  71.1
2020-08-05 06:00  13.6  14.8   257  64.2  54.2  69.5
2020-08-05 05:00  11.7  12.2   259  64.8  53.4  66.2
2020-08-05 04:00  10.7  11.5   262  64.8  54.6  69.2
2020-08-05 03:00   9.7  10.7   264  64.9  56.6  74.1
2020-08-05 02:00   9.5   9.9   267  65.7  55.7  69.8
2020-08-05 01:00   7.0   8.4   275  66.7  57.3  71.4
2020-08-05 00:00   6.4   7.0   350  67.5  54.8  63.5
2020-08-04 23:00   7.8   8.9   338  67.5  53.7  61.0
2020-08-04 22:00   8.0  10.5   349  67.3  54.4  62.9
2020-08-04 21:00  10.5  11.5   358  67.3  55.2  64.7
2020-08-04 20:00   8.9  10.1     5  67.3  53.2  60.2
2020-08-04 19:00   9.9  11.5     8  67.3  53.2  60.2
2020-08-04 18:00  10.9  12.2     4  67.5  53.7  60.8
2020-08-04 17:00  12.6  15.0     9  66.7  54.0  63.2
2020-08-04 16:00  15.9  17.5    18  65.8  54.2  65.6
2020-08-04 15:00  16.7  19.4    13  65.7  54.2  66.0
2020-08-04 14:00  13.6  15.0     4  65.5  55.4  69.5
2020-08-04 13:00  17.7  19.8   340  64.6  57.5  77.4
2020-08-04 12:00  17.7  21.4   342  64.9  58.3  78.7
2020-08-04 11:00  19.8  22.0   333  64.4  59.0  82.3
2020-08-04 10:00  20.0  22.7   343  64.9  57.1  75.4
2020-08-04 09:00  21.8  24.3   344  65.3  54.3  67.2
2020-08-04 08:00  23.1  24.7     1  64.0  56.1  75.0
2020-08-04 07:00  27.8  30.9   349  63.3  58.9  85.3
2020-08-04 06:00  15.4  17.5   326  63.7  60.4  88.9
2020-08-04 05:00  17.5  19.8     4  66.7  55.9  67.7
2020-08-04 04:00  18.5  20.2    12  66.7  57.5  71.7
2020-08-04 03:00  18.3  21.0     9  67.3  55.8  66.3
2020-08-04 02:00  22.2  24.1    14  67.3  56.5  68.0
2020-08-04 01:00  23.1  24.5     4  67.3  56.4  67.8
2020-08-04 00:00  22.2  27.6    10  67.3  56.9  69.0
2020-08-03 23:00  25.9  29.5    11  67.6  56.7  67.6
2020-08-03 22:00  25.7  29.2     9  67.6  60.3  77.1
2020-08-03 21:00  23.3  28.2    11  67.6  63.3  85.8
2020-08-03 20:00  22.6  24.7   354  68.0  62.5  82.3
2020-08-03 19:00  22.0  27.6   350  64.9  64.2  97.4
2020-08-03 18:00  24.5  26.2   359  65.8  64.5  95.2
2020-08-03 17:00  23.7  25.7   347  67.6  63.3  85.8
2020-08-03 16:00  20.4  23.1   346  67.6  63.5  86.4
2020-08-03 15:00  22.0  24.5   347  67.5  63.8  87.9
2020-08-03 14:00  22.6  25.3   338  66.9  63.9  89.8
2020-08-03 13:00  20.0  21.8   340  66.6  64.2  92.1
2020-08-03 12:00  19.8  21.4   338  66.7  65.3  95.0
2020-08-03 11:00  18.3  20.4   334  66.4  65.2  96.0
2020-08-03 10:00  17.7  20.2   331  66.2  65.7  98.4
2020-08-03 09:00  19.2  21.8   329  65.1  64.9  99.2
2020-08-03 08:00  15.4  18.9   323  64.9  65.0 100.2
2020-08-03 07:00  14.0  15.9   320  66.4  66.3  99.7
2020-08-03 06:00  17.3  18.9   327  67.6  67.7 100.2
2020-08-03 05:00  23.1  24.3   332  66.9  66.7  99.3
2020-08-03 04:00  26.6  29.2   334  67.6  67.0  97.7
2020-08-03 03:00  13.6  15.0   325  68.2  67.8  98.8
2020-08-03 02:00  10.5  12.1   305  68.7  67.4  95.5
2020-08-03 01:00  10.1  11.3   309  69.4  68.9  98.2
2020-08-03 00:00   9.5  10.1   308  70.0  69.0  96.5
2020-08-02 23:00   5.6   6.0   227  70.5  67.3  89.5
2020-08-02 22:00   2.9   4.7   153  70.3  68.2  92.8
2020-08-02 21:00   6.8   7.8   351  70.3  68.3  93.3
2020-08-02 20:00  10.3  11.5    62  69.6  68.6  96.5
2020-08-02 19:00  16.5  17.7    55  69.3  67.6  94.4
2020-08-02 18:00  16.9  17.9    29  68.4  67.7  97.8
2020-08-02 17:00  20.8  24.3   161  68.5  65.9  91.3
2020-08-02 16:00  15.9  17.5   183  73.8  68.9  84.5
2020-08-02 15:00   8.0   8.9   130  76.5  70.0  80.2
2020-08-02 14:00  10.9  11.7   132  75.9  67.6  75.0
2020-08-02 13:00   8.6   9.1   122  76.6  68.0  74.3
2020-08-02 12:00   3.5   5.6   160  77.0  67.8  72.8
2020-08-02 11:00   3.1   3.3   213  74.5  66.4  75.5
2020-08-02 10:00   7.0   8.0   253  72.9  66.9  81.2
2020-08-02 09:00  10.1  11.3   282  71.1  67.3  87.7
2020-08-02 08:00  13.2  14.4   272  69.4  67.7  94.0
2020-08-02 07:00  14.4  15.6   261  68.5  67.8  97.3
2020-08-02 06:00  16.1  18.3   260  68.5  67.6  96.7
2020-08-02 05:00  13.2  14.4   248  69.3  66.5  90.7
2020-08-02 04:00  12.8  14.2   254  68.4  66.1  92.5
2020-08-02 03:00  10.1  11.1   263  67.6  67.7 100.3
2020-08-02 02:00   1.2   2.1   256  67.1  64.1  89.9
2020-08-02 01:00   3.9   4.9    83  67.3  63.1  86.1
2020-08-02 00:00   5.6   6.4    57  68.7  66.5  92.5
2020-08-01 23:00   4.3   5.2    76  70.9  62.7  75.1
2020-08-01 22:00   7.8   9.3    27  73.6  63.9  71.4
2020-08-01 21:00  10.1  10.9    13  73.8  67.1  79.3
2020-08-01 20:00  12.4  13.8    23  73.8  65.7  75.5
2020-08-01 19:00  11.9  13.0    23  73.4  66.1  77.5